Time;durP1;ratioP1;P1;durP2;ratioP2;P2;SDS_P1;SDS_P2;PMS_P1;PMS_P2;Temp;Humidity;BMP_temperature;BMP_pressure;BME280_temperature;BME280_humidity;BME280_pressure;Samples;Min_cycle;Max_cycle;Signal;HPM_P1;HPM_P2
2022/10/16 00:00:34;;;;;;;1.52;1.42;;;;;;;11.53;100.00;100263.59;5043796;28;20040;-78
2022/10/16 00:03:00;;;;;;;2.75;2.58;;;;;;;11.51;100.00;100265.25;5069434;28;20057;-78
2022/10/16 00:05:25;;;;;;;2.33;1.88;;;;;;;11.53;100.00;100257.25;5071652;28;20041;-78
2022/10/16 00:07:51;;;;;;;4.43;2.97;;;;;;;11.51;100.00;100266.06;5070916;28;20040;-78
2022/10/16 00:10:16;;;;;;;2.97;2.63;;;;;;;11.45;100.00;100262.22;5066626;28;20045;-78
2022/10/16 00:12:42;;;;;;;4.13;2.30;;;;;;;11.44;100.00;100259.91;5068067;28;20090;-78
2022/10/16 00:15:08;;;;;;;0.80;0.80;;;;;;;11.46;100.00;100257.47;5063965;28;20040;-76
2022/10/16 00:17:33;;;;;;;2.55;1.17;;;;;;;11.39;100.00;100260.44;5064392;28;20502;-78
2022/10/16 00:19:58;;;;;;;3.25;1.65;;;;;;;11.42;100.00;100262.31;5065033;28;20059;-78
2022/10/16 00:22:24;;;;;;;2.83;2.60;;;;;;;11.34;100.00;100256.19;5065197;28;20032;-78
2022/10/16 00:24:50;;;;;;;9.07;2.63;;;;;;;11.36;100.00;100269.66;5050871;28;20033;-77
2022/10/16 00:27:16;;;;;;;3.20;2.72;;;;;;;11.31;100.00;100268.16;5045575;28;20053;-78
2022/10/16 00:29:42;;;;;;;2.55;2.15;;;;;;;11.33;100.00;100276.84;5068550;28;20068;-78
2022/10/16 00:32:08;;;;;;;2.13;2.03;;;;;;;11.32;100.00;100274.50;5042666;28;20130;-78
2022/10/16 00:34:33;;;;;;;4.15;2.53;;;;;;;11.28;100.00;100274.59;5045906;28;20036;-81
2022/10/16 00:36:59;;;;;;;1.58;1.48;;;;;;;11.28;100.00;100274.59;5067207;28;20675;-81
2022/10/16 00:39:24;;;;;;;1.95;1.85;;;;;;;11.28;100.00;100285.72;5038517;28;20048;-81
2022/10/16 00:41:50;;;;;;;3.40;2.35;;;;;;;11.26;100.00;100281.78;5073244;28;20059;-81
2022/10/16 00:45:00;;;;;;;2.83;1.90;;;;;;;11.22;100.00;100288.22;5057505;28;20497;-81
2022/10/16 00:47:29;;;;;;;3.65;2.50;;;;;;;11.19;100.00;100283.56;5070523;28;20045;-81
2022/10/16 00:50:02;;;;;;;2.75;2.40;;;;;;;11.17;100.00;100283.19;5074730;28;20044;-81
2022/10/16 00:52:28;;;;;;;2.60;2.10;;;;;;;11.16;100.00;100284.41;5048085;28;20044;-81
2022/10/16 00:54:54;;;;;;;2.22;1.75;;;;;;;11.12;100.00;100283.69;5073104;28;20040;-81
2022/10/16 00:57:20;;;;;;;0.95;0.95;;;;;;;11.09;100.00;100279.03;5039422;28;20036;-81
2022/10/16 00:59:45;;;;;;;1.92;1.77;;;;;;;11.07;100.00;100278.69;5054909;28;20040;-80
2022/10/16 01:02:15;;;;;;;3.42;3.13;;;;;;;11.04;100.00;100276.78;5302034;22;20049;-81
2022/10/16 01:04:45;;;;;;;2.50;2.10;;;;;;;11.04;100.00;100276.78;5045362;28;20040;-81
2022/10/16 01:07:25;;;;;;;5.68;2.20;;;;;;;11.06;100.00;100282.69;5052237;28;20068;-81
2022/10/16 01:10:34;;;;;;;2.42;1.65;;;;;;;11.06;100.00;100277.13;5066006;28;20064;-81
2022/10/16 01:13:16;;;;;;;2.03;1.88;;;;;;;11.04;100.00;100281.56;5068930;28;20527;-81
2022/10/16 01:15:47;;;;;;;2.65;2.47;;;;;;;10.99;100.00;100268.97;5050687;28;20149;-81
2022/10/16 01:18:33;;;;;;;1.70;1.60;;;;;;;10.97;100.00;100281.72;5051373;28;20136;-82
2022/10/16 01:21:16;;;;;;;3.97;2.75;;;;;;;10.94;100.00;100277.81;5034192;28;20044;-81
2022/10/16 01:23:57;;;;;;;1.30;1.25;;;;;;;10.95;100.00;100284.94;5047751;28;20139;-81
2022/10/16 01:26:36;;;;;;;2.28;2.08;;;;;;;10.89;100.00;100283.88;5071354;28;20033;-82
2022/10/16 01:29:20;;;;;;;2.33;2.00;;;;;;;10.93;100.00;100292.91;5051672;28;20106;-82
2022/10/16 01:31:51;;;;;;;1.00;0.90;;;;;;;10.91;100.00;100295.34;5026382;28;20081;-81
2022/10/16 01:34:21;;;;;;;2.72;2.47;;;;;;;10.91;100.00;100289.00;5066081;28;20479;-82
2022/10/16 01:36:51;;;;;;;2.08;1.95;;;;;;;10.89;100.00;100286.66;5068469;28;20036;-82
2022/10/16 01:39:19;;;;;;;1.98;1.17;;;;;;;10.92;100.00;100274.69;5071579;28;20476;-81
2022/10/16 01:41:49;;;;;;;2.85;2.65;;;;;;;10.92;100.00;100282.25;5072808;28;20044;-82
2022/10/16 01:44:19;;;;;;;2.40;2.20;;;;;;;10.90;100.00;100285.47;5055360;28;20039;-82
2022/10/16 01:46:47;;;;;;;3.22;2.97;;;;;;;10.91;100.00;100289.00;5052148;28;20132;-82
2022/10/16 01:49:13;;;;;;;2.05;1.85;;;;;;;10.87;100.00;100294.66;5054612;28;20043;-81
2022/10/16 01:51:39;;;;;;;3.50;3.20;;;;;;;10.88;100.00;100296.19;5072726;28;20080;-81
2022/10/16 01:54:06;;;;;;;2.60;1.90;;;;;;;10.87;100.00;100299.41;5071826;28;20064;-81
2022/10/16 01:56:32;;;;;;;2.67;2.47;;;;;;;10.89;100.00;100302.53;5055456;28;20041;-82
2022/10/16 01:59:04;;;;;;;1.85;1.75;;;;;;;10.86;100.00;100312.50;5072672;28;20032;-81
2022/10/16 02:01:31;;;;;;;2.42;1.50;;;;;;;10.81;100.00;100299.16;5054984;28;20082;-81
2022/10/16 02:04:01;;;;;;;1.58;1.48;;;;;;;10.76;100.00;100299.66;5051855;28;20436;-80
2022/10/16 02:06:26;;;;;;;2.38;2.17;;;;;;;10.73;100.00;100298.53;5036278;28;20418;-80
2022/10/16 02:08:53;;;;;;;3.70;3.40;;;;;;;10.73;100.00;100300.53;5051038;28;20055;-80
2022/10/16 02:11:18;;;;;;;2.30;2.00;;;;;;;10.71;100.00;100298.19;5051548;28;20036;-80
2022/10/16 02:13:56;;;;;;;1.48;1.38;;;;;;;10.72;100.00;100293.41;5068629;28;20043;-80
2022/10/16 02:16:33;;;;;;;1.73;1.27;;;;;;;10.71;100.00;100314.06;5052392;28;20087;-80
2022/10/16 02:18:58;;;;;;;3.22;2.42;;;;;;;10.70;100.00;100316.06;5065324;28;20055;-80
2022/10/16 02:21:29;;;;;;;3.30;1.88;;;;;;;10.70;100.00;100318.03;5071384;28;20028;-80
2022/10/16 02:24:16;;;;;;;0.73;0.70;;;;;;;10.68;100.00;100323.22;5048680;28;20032;-80
2022/10/16 02:26:47;;;;;;;4.97;2.90;;;;;;;10.65;100.00;100324.88;5068359;28;20558;-80
2022/10/16 02:29:16;;;;;;;1.90;1.33;;;;;;;10.60;100.00;100321.81;5034380;28;20052;-80
2022/10/16 02:31:47;;;;;;;2.30;2.10;;;;;;;10.66;100.00;100326.44;5050591;28;20405;-80
2022/10/16 02:34:13;;;;;;;0.65;0.65;;;;;;;10.63;100.00;100323.75;5051353;28;20041;-80
2022/10/16 02:36:40;;;;;;;2.10;1.90;;;;;;;10.59;100.00;100318.28;5049881;28;20037;-80
2022/10/16 02:39:06;;;;;;;2.53;2.33;;;;;;;10.58;100.00;100324.25;5034671;28;20090;-80
2022/10/16 02:41:32;;;;;;;2.35;2.15;;;;;;;10.58;100.00;100321.47;5048518;28;20145;-81
2022/10/16 02:43:58;;;;;;;1.73;1.63;;;;;;;10.55;100.00;100316.81;5066641;28;20512;-81
2022/10/16 02:46:23;;;;;;;1.45;1.30;;;;;;;10.52;100.00;100325.97;5068707;28;20150;-80
2022/10/16 02:48:49;;;;;;;2.78;2.53;;;;;;;10.49;100.00;100319.28;5066641;28;20035;-80
2022/10/16 02:51:14;;;;;;;3.00;2.75;;;;;;;10.53;100.00;100324.75;5068238;28;20545;-81
2022/10/16 02:53:39;;;;;;;2.72;1.92;;;;;;;10.50;100.00;100331.16;5069067;28;20055;-80
2022/10/16 02:56:05;;;;;;;2.35;2.15;;;;;;;10.52;100.00;100337.06;5070271;28;20040;-80
2022/10/16 02:58:31;;;;;;;1.85;1.63;;;;;;;10.51;100.00;100335.50;5053092;28;20048;-80
2022/10/16 03:00:56;;;;;;;1.58;1.48;;;;;;;10.49;100.00;100335.16;5066747;28;20064;-80
2022/10/16 03:03:22;;;;;;;4.80;3.65;;;;;;;10.43;100.00;100331.34;5068054;28;20064;-80
2022/10/16 03:05:47;;;;;;;0.75;0.75;;;;;;;10.31;100.00;100340.31;5067029;28;20047;-80
2022/10/16 03:08:13;;;;;;;3.90;3.10;;;;;;;10.29;100.00;100338.72;5066369;28;20032;-80
2022/10/16 03:10:39;;;;;;;2.13;2.03;;;;;;;10.31;100.00;100329.22;5068661;28;20071;-80
2022/10/16 03:13:04;;;;;;;1.38;1.27;;;;;;;10.34;100.00;100339.44;5066699;28;20214;-81
2022/10/16 03:15:30;;;;;;;3.78;1.50;;;;;;;10.31;100.00;100340.31;5067387;28;20041;-80
2022/10/16 03:17:58;;;;;;;2.72;2.53;;;;;;;10.28;100.00;100347.47;5067423;28;20126;-81
2022/10/16 03:20:24;;;;;;;6.15;2.20;;;;;;;10.26;100.00;100352.66;5033663;28;20095;-80
2022/10/16 03:22:49;;;;;;;4.85;1.58;;;;;;;10.25;100.00;100349.13;5070545;28;20508;-80
2022/10/16 03:25:15;;;;;;;1.77;1.63;;;;;;;10.27;100.00;100346.69;5047291;28;20123;-80
2022/10/16 03:27:40;;;;;;;7.43;2.60;;;;;;;10.29;100.00;100349.81;5050446;28;20535;-80
2022/10/16 03:30:06;;;;;;;1.52;1.40;;;;;;;10.28;100.00;100359.34;5069656;28;20032;-81
2022/10/16 03:32:32;;;;;;;2.47;1.73;;;;;;;10.20;100.00;100346.84;5046659;28;20036;-80
2022/10/16 03:34:58;;;;;;;2.45;1.85;;;;;;;10.16;100.00;100351.66;5069472;28;20105;-80
2022/10/16 03:37:23;;;;;;;5.72;1.55;;;;;;;10.16;100.00;100357.22;5070299;28;20075;-80
2022/10/16 03:39:49;;;;;;;1.50;1.40;;;;;;;10.14;100.00;100354.06;5047936;28;20490;-80
2022/10/16 03:42:15;;;;;;;2.40;1.70;;;;;;;10.17;100.00;100364.31;5052031;28;20047;-81
2022/10/16 03:44:40;;;;;;;2.03;1.80;;;;;;;10.09;100.00;100360.09;5070387;28;20090;-81
2022/10/16 03:47:06;;;;;;;1.88;1.73;;;;;;;10.09;100.00;100359.31;5069626;28;20048;-82
2022/10/16 03:49:31;;;;;;;6.82;1.83;;;;;;;10.08;100.00;100366.84;5052669;28;20389;-81
2022/10/16 03:51:57;;;;;;;2.42;1.52;;;;;;;10.07;100.00;100365.28;5047530;28;20068;-81
2022/10/16 03:54:22;;;;;;;3.05;2.47;;;;;;;10.05;100.00;100367.69;5067185;28;20060;-80
2022/10/16 03:56:48;;;;;;;1.90;1.48;;;;;;;10.03;100.00;100369.34;5065987;28;20485;-83
2022/10/16 03:59:13;;;;;;;3.58;3.22;;;;;;;10.05;100.00;100367.69;5049866;28;20079;-81
2022/10/16 04:01:39;;;;;;;2.00;1.63;;;;;;;10.08;100.00;100372.38;5062852;28;20043;-80
2022/10/16 04:04:04;;;;;;;1.95;1.85;;;;;;;10.05;100.00;100367.69;5055633;28;20049;-81
2022/10/16 04:06:30;;;;;;;1.65;1.55;;;;;;;10.08;100.00;100366.06;5033293;28;20070;-81
2022/10/16 04:08:56;;;;;;;4.78;1.83;;;;;;;10.08;100.00;100372.38;5052066;28;20502;-81
2022/10/16 04:11:21;;;;;;;2.80;2.17;;;;;;;10.07;100.00;100368.03;5050375;28;21662;-81
2022/10/16 04:13:47;;;;;;;2.22;1.92;;;;;;;10.11;100.00;100377.06;5033088;28;20025;-82
2022/10/16 04:16:12;;;;;;;3.40;3.10;;;;;;;10.04;100.00;100371.66;5053910;28;20037;-82
2022/10/16 04:18:38;;;;;;;3.03;2.15;;;;;;;10.06;100.00;100380.34;5054042;28;20052;-82
2022/10/16 04:21:05;;;;;;;2.58;2.22;;;;;;;10.03;100.00;100375.66;5056791;28;20037;-82
2022/10/16 04:23:31;;;;;;;2.75;2.05;;;;;;;10.00;100.00;100381.25;5052296;28;20044;-82
2022/10/16 04:25:56;;;;;;;2.83;1.45;;;;;;;9.99;100.00;100380.47;5020121;28;20040;-82
2022/10/16 04:28:22;;;;;;;0.73;0.73;;;;;;;9.98;100.00;100372.59;5056978;28;20112;-82
2022/10/16 04:30:47;;;;;;;3.60;3.30;;;;;;;9.94;100.00;100377.44;5063404;28;20048;-82
2022/10/16 04:33:13;;;;;;;1.85;1.15;;;;;;;9.93;100.00;100376.66;5053691;28;20552;-82
2022/10/16 04:35:38;;;;;;;1.77;1.67;;;;;;;9.91;100.00;100376.28;5052724;28;20131;-82
2022/10/16 04:38:04;;;;;;;2.28;1.15;;;;;;;9.94;100.00;100382.97;5054843;28;20453;-82
2022/10/16 04:40:32;;;;;;;0.63;0.63;;;;;;;9.92;100.00;100383.38;5039522;28;20102;-82
2022/10/16 04:42:58;;;;;;;3.10;1.50;;;;;;;9.96;100.00;100397.16;5047586;28;20041;-82
2022/10/16 04:45:25;;;;;;;2.22;2.05;;;;;;;9.95;100.00;100395.63;5055354;28;20063;-82
2022/10/16 04:47:50;;;;;;;3.72;1.85;;;;;;;9.89;100.00;100389.78;5057287;28;20040;-82
2022/10/16 04:50:16;;;;;;;1.40;1.33;;;;;;;9.86;100.00;100398.94;5024650;28;20045;-82
2022/10/16 04:53:00;;;;;;;2.45;2.25;;;;;;;9.83;100.00;100397.78;5046515;28;20057;-82
2022/10/16 04:55:25;;;;;;;2.38;2.25;;;;;;;9.80;100.00;100404.19;5033473;28;20043;-81
2022/10/16 04:57:51;;;;;;;1.15;1.13;;;;;;;9.84;100.00;100406.88;5023192;28;20059;-82
2022/10/16 05:00:16;;;;;;;1.63;1.30;;;;;;;9.79;100.00;100391.53;5056135;28;20045;-82
2022/10/16 05:02:42;;;;;;;1.50;1.40;;;;;;;9.77;100.00;100402.25;5046411;28;20080;-82
2022/10/16 05:05:07;;;;;;;3.65;2.20;;;;;;;9.81;100.00;100416.06;5055914;28;20111;-82
2022/10/16 05:07:33;;;;;;;4.10;2.88;;;;;;;9.80;100.00;100414.47;5057069;28;20039;-82
2022/10/16 05:09:58;;;;;;;1.67;1.58;;;;;;;9.81;100.00;100407.75;5050701;28;20132;-82
2022/10/16 05:12:24;;;;;;;4.72;2.22;;;;;;;9.83;100.00;100410.84;5054871;28;20103;-81
2022/10/16 05:14:49;;;;;;;2.08;1.90;;;;;;;9.80;100.00;100412.50;5065041;28;20076;-82
2022/10/16 05:17:15;;;;;;;1.70;1.60;;;;;;;9.81;100.00;100407.75;5034108;28;20521;-83
2022/10/16 05:19:40;;;;;;;2.25;1.98;;;;;;;9.76;100.00;100416.53;5036561;28;20044;-82
2022/10/16 05:22:06;;;;;;;1.38;1.27;;;;;;;9.79;100.00;100413.69;5047416;28;20528;-82
2022/10/16 05:24:31;;;;;;;2.58;1.95;;;;;;;9.83;100.00;100421.94;5050830;28;20512;-82
2022/10/16 05:26:57;;;;;;;2.58;2.33;;;;;;;9.79;100.00;100423.97;5052609;28;20061;-82
2022/10/16 05:29:22;;;;;;;2.58;1.77;;;;;;;9.77;100.00;100418.09;5028221;28;20410;-82
2022/10/16 05:31:52;;;;;;;1.10;1.00;;;;;;;9.78;100.00;100414.13;5052769;28;20032;-81
2022/10/16 05:34:18;;;;;;;7.20;2.00;;;;;;;9.83;100.00;100421.94;5070174;28;20075;-81
2022/10/16 05:36:45;;;;;;;3.40;2.75;;;;;;;9.84;100.00;100423.50;5032710;28;20069;-81
2022/10/16 05:39:11;;;;;;;4.15;2.90;;;;;;;9.85;100.00;100427.84;5053459;28;20547;-80
2022/10/16 05:41:36;;;;;;;2.22;2.03;;;;;;;9.89;100.00;100425.81;5045377;28;20041;-80
2022/10/16 05:44:05;;;;;;;2.97;2.65;;;;;;;9.95;100.00;100440.72;5037358;28;20099;-80
2022/10/16 05:46:32;;;;;;;2.00;1.85;;;;;;;9.96;100.00;100431.22;5044407;28;20143;-80
2022/10/16 05:48:57;;;;;;;3.05;2.05;;;;;;;9.97;100.00;100435.56;5033527;28;20055;-80
2022/10/16 05:51:23;;;;;;;1.25;1.20;;;;;;;10.03;100.00;100435.88;5051638;28;20041;-80
2022/10/16 05:53:48;;;;;;;2.75;2.53;;;;;;;10.08;100.00;100450.00;5062359;28;20020;-80
2022/10/16 05:56:14;;;;;;;3.42;3.13;;;;;;;10.09;100.00;100440.47;5039080;28;20044;-80
2022/10/16 05:58:40;;;;;;;2.88;2.67;;;;;;;10.13;100.00;100457.81;5034616;28;20098;-80
2022/10/16 06:01:10;;;;;;;2.55;1.90;;;;;;;10.18;100.00;100460.16;5054692;28;20049;-81
2022/10/16 06:03:36;;;;;;;1.52;1.42;;;;;;;10.23;100.00;100454.09;5063674;28;20542;-81
2022/10/16 06:06:13;;;;;;;1.75;1.48;;;;;;;10.31;100.00;100465.06;5035323;28;20192;-86
2022/10/16 06:08:39;;;;;;;4.45;3.08;;;;;;;10.33;100.00;100468.97;5034953;28;20361;-80
2022/10/16 06:11:07;;;;;;;3.95;3.17;;;;;;;10.39;100.00;100480.38;5047563;28;20053;-80
2022/10/16 06:13:32;;;;;;;2.97;2.78;;;;;;;10.43;100.00;100492.97;5051809;28;20583;-81
2022/10/16 06:15:59;;;;;;;2.35;2.15;;;;;;;10.52;100.00;100484.84;5072655;28;20048;-81
2022/10/16 06:18:26;;;;;;;3.58;3.17;;;;;;;10.61;100.00;100481.50;5054601;28;20413;-81
2022/10/16 06:20:52;;;;;;;2.10;1.95;;;;;;;10.66;100.00;100489.34;5038314;28;20055;-81
2022/10/16 06:23:17;;;;;;;1.80;1.70;;;;;;;10.77;100.00;100495.47;5060081;28;20482;-81
2022/10/16 06:25:43;;;;;;;2.30;1.63;;;;;;;10.92;100.00;100499.50;5052477;28;20044;-81
2022/10/16 06:28:08;;;;;;;1.90;1.40;;;;;;;10.96;100.00;100500.22;5063623;28;20045;-80
2022/10/16 06:30:34;;;;;;;1.83;1.73;;;;;;;11.02;100.00;100495.72;5053826;28;20052;-80
2022/10/16 06:32:59;;;;;;;2.60;1.35;;;;;;;11.12;100.00;100505.81;5053198;28;20052;-81
2022/10/16 06:35:25;;;;;;;3.22;1.98;;;;;;;11.19;100.00;100500.13;5036663;28;20052;-81
2022/10/16 06:37:52;;;;;;;1.90;1.80;;;;;;;11.39;100.00;100507.63;5051070;28;20083;-82
2022/10/16 06:40:18;;;;;;;2.08;1.75;;;;;;;11.48;100.00;100510.59;5049796;28;20037;-82
2022/10/16 06:42:44;;;;;;;3.28;2.00;;;;;;;11.53;100.00;100510.84;5033744;28;20497;-88
2022/10/16 06:45:09;;;;;;;2.47;2.08;;;;;;;11.64;100.00;100514.19;5052145;28;20047;-82
2022/10/16 06:47:35;;;;;;;1.40;1.30;;;;;;;11.73;100.00;100527.50;5048792;28;20124;-82
2022/10/16 06:50:00;;;;;;;2.10;1.63;;;;;;;11.85;100.00;100524.03;5051002;28;20455;-82
2022/10/16 06:52:28;;;;;;;2.72;2.47;;;;;;;12.01;100.00;100521.25;5016866;28;20041;-82
2022/10/16 06:54:53;;;;;;;2.67;2.45;;;;;;;12.00;100.00;100514.13;5050679;28;20103;-82
2022/10/16 06:57:19;;;;;;;1.88;1.25;;;;;;;12.22;100.00;100525.47;5050685;28;20453;-82
2022/10/16 06:59:44;;;;;;;3.50;2.55;;;;;;;12.28;100.00;100529.31;5050294;28;20075;-82
2022/10/16 07:02:10;;;;;;;4.55;2.65;;;;;;;12.39;100.00;100534.59;5024256;28;20712;-89
2022/10/16 07:04:36;;;;;;;4.07;3.03;;;;;;;12.44;100.00;100528.50;5068153;28;20045;-89
2022/10/16 07:07:01;;;;;;;2.75;2.55;;;;;;;12.58;100.00;100542.81;5068027;28;20044;-89
2022/10/16 07:09:27;;;;;;;2.63;2.22;;;;;;;12.60;100.00;100534.81;5068621;28;20067;-89
2022/10/16 07:11:53;;;;;;;2.63;2.40;;;;;;;12.70;100.00;100546.09;5065772;28;20064;-89
2022/10/16 07:14:19;;;;;;;4.40;4.00;;;;;;;12.74;100.00;100541.97;5069674;28;20286;-89
2022/10/16 07:16:45;;;;;;;2.88;2.58;;;;;;;12.99;100.00;100538.50;5074066;28;20043;-89
2022/10/16 07:19:13;;;;;;;2.20;2.00;;;;;;;13.21;100.00;100555.41;5044975;28;20470;-89
2022/10/16 07:21:39;;;;;;;2.15;1.83;;;;;;;13.33;100.00;100557.44;5064127;28;20501;-82
2022/10/16 07:24:06;;;;;;;2.38;1.75;;;;;;;13.54;100.00;100548.47;5044100;28;20051;-88
2022/10/16 07:26:34;;;;;;;3.28;2.10;;;;;;;13.51;100.00;100560.47;5050764;28;20040;-89
2022/10/16 07:29:00;;;;;;;7.65;3.63;;;;;;;13.54;100.00;100562.38;5060642;28;20052;-85
2022/10/16 07:31:26;;;;;;;2.65;2.45;;;;;;;13.39;100.00;100561.25;5016320;28;20041;-89
2022/10/16 07:33:52;;;;;;;2.28;2.05;;;;;;;13.41;100.00;100564.38;5032280;28;20547;-89
2022/10/16 07:36:19;;;;;;;2.42;1.67;;;;;;;13.65;100.00;100565.63;5063041;28;20127;-89
2022/10/16 07:38:45;;;;;;;6.40;3.00;;;;;;;13.88;100.00;100559.72;5041829;28;20107;-89
2022/10/16 07:41:13;;;;;;;1.90;1.70;;;;;;;14.11;100.00;100568.97;5057796;28;20051;-89
2022/10/16 07:43:38;;;;;;;2.65;2.45;;;;;;;14.25;100.00;100572.06;5059542;28;20041;-87
2022/10/16 07:46:04;;;;;;;4.32;2.90;;;;;;;14.02;100.00;100570.44;5040349;28;20513;-88
2022/10/16 07:48:31;;;;;;;3.20;2.13;;;;;;;14.18;100.00;100582.69;5063079;28;20411;-87
2022/10/16 07:51:01;;;;;;;3.22;2.95;;;;;;;14.26;100.00;100584.00;5058073;28;20541;-87
2022/10/16 07:53:27;;;;;;;3.95;3.22;;;;;;;14.30;100.00;100581.88;5059701;28;20075;-87
2022/10/16 07:55:56;;;;;;;2.67;2.15;;;;;;;14.48;100.00;100577.28;5047859;28;20039;-87
2022/10/16 07:58:21;;;;;;;3.05;2.47;;;;;;;14.65;100.00;100579.91;5063824;28;20040;-85
2022/10/16 08:00:47;;;;;;;2.53;2.38;;;;;;;14.50;100.00;100573.25;5065222;28;20063;-86
2022/10/16 08:03:13;;;;;;;2.40;2.17;;;;;;;14.48;100.00;100579.28;5056376;28;20083;-83
2022/10/16 08:05:38;;;;;;;5.82;4.60;;;;;;;14.77;100.00;100593.03;5038944;28;20048;-80
2022/10/16 08:08:03;;;;;;;3.78;3.47;;;;;;;14.80;100.00;100587.34;5039922;28;20042;-81
2022/10/16 08:10:29;;;;;;;3.60;3.25;;;;;;;15.00;100.00;100592.63;5035313;28;20469;-80
2022/10/16 08:12:55;;;;;;;3.78;3.45;;;;;;;15.26;100.00;100582.88;5041993;28;20040;-82
2022/10/16 08:15:20;;;;;;;3.47;2.30;;;;;;;15.17;100.00;100584.81;5024682;28;20040;-81
2022/10/16 08:18:16;;;;;;;3.13;2.42;;;;;;;15.09;100.00;100589.09;5017311;28;20041;-86
2022/10/16 08:20:42;;;;;;;2.78;2.50;;;;;;;15.26;100.00;100590.47;5022339;28;20052;-86
2022/10/16 08:23:10;;;;;;;6.60;2.95;;;;;;;15.47;100.00;100586.88;5036960;28;20040;-86
2022/10/16 08:25:36;;;;;;;3.70;3.00;;;;;;;15.47;100.00;100581.28;5044058;28;20612;-87
2022/10/16 08:28:05;;;;;;;4.53;2.83;;;;;;;15.69;100.00;100590.44;5037831;28;20127;-87
2022/10/16 08:30:31;;;;;;;3.55;2.60;;;;;;;15.42;100.00;100601.44;5026574;28;20183;-87
2022/10/16 08:32:57;;;;;;;2.10;1.92;;;;;;;15.46;100.00;100607.69;5039807;28;20120;-87
2022/10/16 08:35:23;;;;;;;4.05;3.38;;;;;;;15.56;100.00;100608.56;5041686;28;20508;-86
2022/10/16 08:37:49;;;;;;;4.05;3.10;;;;;;;15.70;100.00;100602.41;5007648;28;20029;-81
2022/10/16 08:40:18;;;;;;;4.63;3.90;;;;;;;15.72;100.00;100602.75;5041779;28;20040;-82
2022/10/16 08:42:52;;;;;;;2.50;2.30;;;;;;;15.88;100.00;100610.13;5022421;28;20707;-80
2022/10/16 08:45:42;;;;;;;3.60;3.25;;;;;;;15.92;100.00;100603.16;5024970;28;20044;-80
2022/10/16 08:48:26;;;;;;;3.75;2.47;;;;;;;16.03;100.00;100611.09;5020643;28;20053;-79
2022/10/16 08:50:51;;;;;;;;;;;;;;;15.78;100.00;100614.88;5028326;28;20111;-82
2022/10/16 08:53:28;;;;;;;8.13;4.05;;;;;;;15.88;100.00;100615.72;5017705;28;19925;-82
2022/10/16 08:55:54;;;;;;;2.97;2.75;;;;;;;15.90;100.00;100613.22;5016569;28;20075;-82
2022/10/16 08:58:22;;;;;;;3.80;2.70;;;;;;;16.34;100.00;100607.00;5036212;28;20073;-88
2022/10/16 09:00:54;;;;;;;5.47;3.97;;;;;;;16.46;100.00;100615.75;5043440;28;20037;-86
2022/10/16 09:03:28;;;;;;;2.45;2.15;;;;;;;16.64;100.00;100619.41;5054019;28;20044;-88
2022/10/16 09:06:20;;;;;;;5.32;3.35;;;;;;;16.96;100.00;100614.44;5063344;28;20066;-86
2022/10/16 09:09:02;;;;;;;3.58;3.25;;;;;;;16.83;100.00;100633.41;5066053;28;20053;-86
2022/10/16 09:11:49;;;;;;;3.83;3.50;;;;;;;16.86;100.00;100633.28;5044114;28;20045;-86
2022/10/16 09:14:37;;;;;;;6.75;3.67;;;;;;;17.02;100.00;100629.41;5047932;28;20049;-86
2022/10/16 09:17:30;;;;;;;3.03;2.72;;;;;;;16.96;100.00;100632.03;5063722;28;20048;-86
2022/10/16 09:19:59;;;;;;;;;;;;;;;17.06;100.00;100636.41;5047220;28;20127;-86
2022/10/16 09:22:28;;;;;;;4.15;3.75;;;;;;;17.25;100.00;100621.13;5065929;28;19919;-85
2022/10/16 09:24:55;;;;;;;2.35;2.00;;;;;;;17.21;100.00;100622.53;5060002;28;20060;-86
2022/10/16 09:27:20;;;;;;;4.30;2.50;;;;;;;17.42;100.00;100612.38;5046116;28;20452;-85
2022/10/16 09:29:46;;;;;;;3.67;2.00;;;;;;;17.36;100.00;100617.84;5058472;28;20044;-86
2022/10/16 09:32:14;;;;;;;3.13;2.63;;;;;;;17.38;100.00;100609.75;5062432;28;20048;-87
2022/10/16 09:34:45;;;;;;;4.60;3.40;;;;;;;17.34;100.00;100611.94;5044772;28;20032;-86
2022/10/16 09:37:14;;;;;;;4.85;3.50;;;;;;;17.49;100.00;100612.03;5047496;28;20117;-81
2022/10/16 09:39:53;;;;;;;3.65;3.30;;;;;;;17.64;100.00;100612.97;5027586;28;20064;-81
2022/10/16 09:42:22;;;;;;;4.25;3.22;;;;;;;17.80;100.00;100611.81;5053403;28;20041;-81
2022/10/16 09:44:49;;;;;;;6.50;3.90;;;;;;;17.80;100.00;100609.03;5060334;28;20385;-81
2022/10/16 09:47:18;;;;;;;5.07;2.60;;;;;;;18.01;100.00;100596.78;5071962;28;20045;-82
2022/10/16 09:49:59;;;;;;;5.15;2.67;;;;;;;18.32;100.00;100599.28;5071631;28;20093;-82
2022/10/16 09:52:25;;;;;;;2.17;2.00;;;;;;;18.36;100.00;100609.06;5059964;28;20120;-81
2022/10/16 09:54:55;;;;;;;4.97;3.58;;;;;;;18.32;100.00;100616.91;5065714;28;20037;-81
2022/10/16 09:57:22;;;;;;;3.47;3.17;;;;;;;18.15;100.00;100619.34;5035955;28;20053;-81
2022/10/16 09:59:55;;;;;;;3.58;3.28;;;;;;;18.51;100.00;100626.00;5070845;28;20086;-81
2022/10/16 10:02:30;;;;;;;3.80;3.50;;;;;;;18.75;100.00;100626.03;5053102;28;20570;-81
2022/10/16 10:04:56;;;;;;;2.60;2.15;;;;;;;19.00;100.00;100623.50;5053078;28;20091;-81
2022/10/16 10:07:33;;;;;;;2.45;2.25;;;;;;;18.91;100.00;100628.41;5051893;28;20036;-81
2022/10/16 10:09:59;;;;;;;3.92;2.80;;;;;;;18.89;100.00;100626.06;5062973;28;20902;-81
2022/10/16 10:12:27;;;;;;;3.13;2.83;;;;;;;18.80;100.00;100623.34;5031001;28;20507;-88
2022/10/16 10:14:56;;;;;;;2.28;2.00;;;;;;;18.75;100.00;100617.59;5052258;28;20922;-81
2022/10/16 10:17:26;;;;;;;5.30;2.67;;;;;;;19.11;100.00;100631.38;5066859;28;20045;-81
2022/10/16 10:20:01;;;;;;;2.30;1.92;;;;;;;19.36;99.42;100624.44;5063089;28;20041;-82
2022/10/16 10:22:29;;;;;;;3.92;2.60;;;;;;;19.64;97.99;100627.78;5043343;28;20040;-81
2022/10/16 10:25:13;;;;;;;5.20;3.88;;;;;;;19.61;97.46;100617.50;5040931;28;20419;-82
2022/10/16 10:27:57;;;;;;;4.45;3.10;;;;;;;19.94;96.33;100621.63;5053630;28;20044;-82
2022/10/16 10:30:27;;;;;;;6.90;3.10;;;;;;;20.15;96.01;100614.03;5056990;28;20044;-82
2022/10/16 10:33:05;;;;;;;2.03;1.85;;;;;;;20.30;94.09;100611.97;5036532;28;20120;-88
2022/10/16 10:36:00;;;;;;;15.13;2.75;;;;;;;20.52;92.35;100616.38;5058979;28;20474;-81
2022/10/16 10:38:39;;;;;;;4.45;3.35;;;;;;;20.59;94.38;100627.22;5072126;28;20489;-82
2022/10/16 10:41:29;;;;;;;6.22;3.35;;;;;;;20.82;91.20;100614.97;5054268;28;20044;-82
2022/10/16 10:44:10;;;;;;;4.10;2.22;;;;;;;20.76;91.43;100622.56;5071965;28;20099;-82
2022/10/16 10:46:39;;;;;;;2.30;2.10;;;;;;;20.76;92.00;100614.13;5037722;28;20066;-82
2022/10/16 10:49:32;;;;;;;4.57;3.65;;;;;;;20.68;89.86;100610.16;5071595;28;20067;-82
2022/10/16 10:52:22;;;;;;;4.32;2.83;;;;;;;20.61;92.38;100607.78;5065401;28;20097;-89
2022/10/16 10:55:22;;;;;;;3.67;2.38;;;;;;;20.72;90.85;100610.75;5067400;28;20044;-89
2022/10/16 10:58:07;;;;;;;7.05;2.90;;;;;;;20.55;92.44;100606.91;5038912;28;20087;-89
2022/10/16 11:01:06;;;;;;;3.90;2.42;;;;;;;20.67;92.17;100612.22;5053710;28;20045;-88
2022/10/16 11:03:47;;;;;;;3.90;2.42;;;;;;;20.62;91.55;100610.13;5060126;28;20182;-89
2022/10/16 11:06:17;;;;;;;1.92;1.83;;;;;;;20.88;91.55;100615.81;5069818;28;20497;-89
2022/10/16 11:08:51;;;;;;;5.20;3.58;;;;;;;21.30;89.52;100613.25;5032996;28;20032;-87
2022/10/16 11:11:23;;;;;;;1.88;1.77;;;;;;;21.22;88.08;100612.13;5062357;28;20402;-87
2022/10/16 11:14:18;;;;;;;6.65;2.75;;;;;;;20.87;89.76;100608.59;5052500;28;20071;-88
2022/10/16 11:17:09;;;;;;;4.72;3.47;;;;;;;21.10;89.29;100599.16;5057765;28;20048;-87
2022/10/16 11:19:53;;;;;;;3.60;3.28;;;;;;;21.08;89.00;100593.22;5054549;28;20509;-88
2022/10/16 11:22:35;;;;;;;3.63;3.25;;;;;;;21.24;88.67;100603.94;5062395;28;20045;-87
2022/10/16 11:25:11;;;;;;;2.63;2.42;;;;;;;21.49;87.62;100602.41;5049141;28;20044;-87
2022/10/16 11:27:41;;;;;;;3.38;2.45;;;;;;;21.60;87.38;100601.72;5053385;28;20532;-88
2022/10/16 11:30:31;;;;;;;3.50;3.20;;;;;;;21.74;88.88;100595.19;5069977;28;20210;-81